createdAt,value
2023-01-29T11:02:18.149Z,98011.97
2023-01-29T11:06:26.789Z,97987.03
2023-01-29T11:10:29.420Z,97987.16
2023-01-29T11:14:37.117Z,97974.19
2023-01-29T11:18:59.678Z,97955.78
2023-01-29T11:23:00.508Z,97942.34
2023-01-29T11:27:04.500Z,97929.69
2023-01-29T11:31:05.420Z,97925.78
2023-01-29T11:35:24.157Z,97915.84
2023-01-29T11:39:27.583Z,97905.19
2023-01-29T11:43:33.853Z,97900.16
2023-01-29T11:47:35.808Z,97912.88
2023-01-29T11:51:42.165Z,97891.22
2023-01-29T11:55:50.573Z,97903.75
2023-01-29T11:59:55.034Z,97893.41
2023-01-29T12:03:57.261Z,97904.59
2023-01-29T12:08:03.348Z,97902.97
2023-01-29T12:12:30.860Z,97892.22
2023-01-29T12:16:39.366Z,97888.25
2023-01-29T12:20:47.780Z,97878.31
2023-01-29T12:24:59.879Z,97876.84
2023-01-29T12:29:24.027Z,97861.47
2023-01-29T12:33:40.020Z,97832.03
2023-01-29T12:37:54.988Z,97809.09
2023-01-29T12:42:05.021Z,97765.69
2023-01-29T12:46:21.574Z,97797.03
2023-01-29T12:50:27.050Z,97814.66
2023-01-29T12:54:39.693Z,97798.66
2023-01-29T12:58:49.649Z,97804.06
2023-01-29T13:03:00.979Z,97805.16
2023-01-29T13:07:15.640Z,97807.59
2023-01-29T13:11:25.101Z,97784.78
2023-01-29T13:15:37.862Z,97796.03
2023-01-29T13:19:45.442Z,97778.44
2023-01-29T13:23:50.090Z,97793.34
2023-01-29T13:27:52.095Z,97805.09
2023-01-29T13:31:58.135Z,97785.88
2023-01-29T13:36:03.019Z,97783.63
2023-01-29T13:40:06.249Z,97796.13
2023-01-29T13:44:11.666Z,97773.25
2023-01-29T13:48:28.717Z,97804.41
2023-01-29T13:52:39.988Z,97777.84
2023-01-29T13:56:59.458Z,97783.66
2023-01-29T14:01:01.726Z,97777.72
2023-01-29T14:05:45.475Z,97763.78
2023-01-29T14:10:16.626Z,97763.31
2023-01-29T14:15:08.593Z,97748.81
2023-01-29T14:19:09.705Z,97718.03
2023-01-29T14:23:32.802Z,97767.78
2023-01-29T14:27:34.890Z,97771.88
2023-01-29T14:31:44.424Z,97744.72
2023-01-29T14:35:54.303Z,97755.47
2023-01-29T14:40:02.840Z,97756.84
2023-01-29T14:44:48.442Z,97753.47
2023-01-29T14:48:52.085Z,97752.81
2023-01-29T14:52:56.630Z,97742.16
2023-01-29T14:57:08.234Z,97763.78
2023-01-29T15:01:21.272Z,97758.59
2023-01-29T15:05:26.257Z,97767.75
2023-01-29T15:09:41.842Z,97754.69
2023-01-29T15:13:54.058Z,97736.25
2023-01-29T15:18:02.334Z,97755.34
2023-01-29T15:22:07.306Z,97725.00
2023-01-29T15:26:16.160Z,97739.84
2023-01-29T15:30:24.985Z,97742.09
2023-01-29T15:34:26.298Z,97739.97
2023-01-29T15:38:29.578Z,97728.25
2023-01-29T15:42:32.152Z,97720.19
2023-01-29T15:46:39.665Z,97734.44
2023-01-29T15:50:45.034Z,97740.69
2023-01-29T15:54:46.249Z,97740.59
2023-01-29T15:58:50.949Z,97707.16
2023-01-29T16:02:53.789Z,97708.09
2023-01-29T16:06:57.170Z,97733.56
2023-01-29T16:11:01.346Z,97719.63
2023-01-29T16:15:02.324Z,97721.56
2023-01-29T16:19:15.922Z,97717.44
2023-01-29T16:23:23.362Z,97702.38
2023-01-29T16:27:23.694Z,97701.41
2023-01-29T16:31:31.511Z,97687.22
2023-01-29T16:35:35.593Z,97688.19
2023-01-29T16:39:41.146Z,97707.28
2023-01-29T16:43:54.535Z,97663.44
2023-01-29T16:48:05.361Z,97707.63
2023-01-29T16:52:21.995Z,97708.72
2023-01-29T16:56:25.912Z,97688.09
2023-01-29T17:00:30.501Z,97702.34
2023-01-29T17:04:31.646Z,97709.31
2023-01-29T17:08:37.694Z,97701.41
2023-01-29T17:12:39.060Z,97706.59
2023-01-29T17:16:52.161Z,97702.75
2023-01-29T17:20:53.714Z,97689.91
2023-01-29T17:24:56.398Z,97711.25
2023-01-29T17:28:57.738Z,97705.94
2023-01-29T17:32:57.747Z,97709.34
2023-01-29T17:36:57.953Z,97714.81
2023-01-29T17:41:05.101Z,97716.72
2023-01-29T17:45:05.425Z,97713.97
2023-01-29T17:49:07.622Z,97717.56
2023-01-29T17:53:07.768Z,97689.78
2023-01-29T17:57:13.105Z,97700.84
2023-01-29T18:01:13.703Z,97693.72
2023-01-29T18:05:16.264Z,97678.06
2023-01-29T18:09:19.801Z,97683.16
2023-01-29T18:13:22.479Z,97696.44
2023-01-29T18:17:23.476Z,97671.41
2023-01-29T18:21:23.726Z,97689.31
2023-01-29T18:25:25.863Z,97687.66
2023-01-29T18:29:30.170Z,97659.16
2023-01-29T18:33:30.321Z,97687.25
2023-01-29T18:37:31.040Z,97699.72
2023-01-29T18:41:31.142Z,97688.75
2023-01-29T18:45:34.233Z,97696.69
2023-01-29T18:49:36.312Z,97692.41
2023-01-29T18:53:36.440Z,97713.94
2023-01-29T18:58:27.426Z,97723.25
2023-01-29T19:02:00.991Z,97704.09
2023-01-29T19:06:03.995Z,97708.81
2023-01-29T19:10:06.844Z,97715.22
2023-01-29T19:14:06.966Z,97700.91
2023-01-29T19:18:09.897Z,97693.00
2023-01-29T19:22:10.368Z,97708.78
2023-01-29T19:26:10.803Z,97715.94
2023-01-29T19:30:13.480Z,97694.78
2023-01-29T19:34:17.432Z,97704.38
2023-01-29T19:38:21.344Z,97676.75
2023-01-29T19:42:21.530Z,97710.75
2023-01-29T19:46:21.898Z,97696.59
2023-01-29T19:50:24.957Z,97671.59
2023-01-29T19:54:27.490Z,97669.84
2023-01-29T19:58:48.329Z,97637.88
2023-01-29T20:02:50.360Z,97673.56
2023-01-29T20:06:56.921Z,97682.16
2023-01-29T20:10:59.962Z,97653.97
2023-01-29T20:15:02.752Z,97598.13
2023-01-29T20:19:29.895Z,97561.38
2023-01-29T20:23:46.164Z,97649.56
2023-01-29T20:27:50.349Z,97643.59
2023-01-29T20:31:55.476Z,97565.13
2023-01-29T20:36:05.891Z,97533.09
2023-01-29T20:40:11.831Z,97582.69
2023-01-29T20:44:12.538Z,97563.19
2023-01-29T20:48:14.035Z,97571.78
2023-01-29T20:52:14.493Z,97583.81
2023-01-29T20:56:18.735Z,97601.63
2023-01-29T21:00:46.096Z,97604.56
2023-01-29T21:04:51.041Z,97536.41
2023-01-29T21:08:52.199Z,97534.75
2023-01-29T21:12:55.915Z,97536.13
2023-01-29T21:16:56.824Z,97547.97
2023-01-29T21:20:57.689Z,97598.34
2023-01-29T21:24:57.838Z,97588.50
2023-01-29T21:29:00.513Z,97610.38
2023-01-29T21:33:00.799Z,97612.50
2023-01-29T21:37:00.960Z,97605.81
2023-01-29T21:41:05.503Z,97625.53
2023-01-29T21:45:10.220Z,97629.28
2023-01-29T21:49:10.537Z,97633.34
2023-01-29T21:53:10.688Z,97616.88
2023-01-29T21:57:16.324Z,97631.06
2023-01-29T22:01:37.536Z,97623.66
2023-01-29T22:05:39.601Z,97625.13
2023-01-29T22:09:40.523Z,97623.03
2023-01-29T22:13:41.047Z,97590.66
2023-01-29T22:17:44.467Z,97600.34
2023-01-29T22:21:45.002Z,97588.03
2023-01-29T22:25:45.310Z,97592.81
2023-01-29T22:29:45.625Z,97525.13
2023-01-29T22:33:49.083Z,97561.22
2023-01-29T22:37:49.145Z,97533.31
2023-01-29T22:41:49.424Z,97538.34
2023-01-29T22:45:50.062Z,97499.88
2023-01-29T22:49:52.754Z,97515.88
2023-01-29T22:53:54.971Z,97501.81
2023-01-29T22:57:55.000Z,97492.50
2023-01-29T23:01:55.121Z,97482.13
2023-01-29T23:05:57.846Z,97460.53
2023-01-29T23:09:58.027Z,97434.81
2023-01-29T23:13:58.550Z,97413.53
2023-01-29T23:17:58.807Z,97442.44
2023-01-29T23:22:01.579Z,97438.03
2023-01-29T23:26:15.149Z,97426.16
2023-01-29T23:30:16.761Z,97417.81
2023-01-29T23:34:17.334Z,97425.19
2023-01-29T23:38:20.186Z,97401.09
2023-01-29T23:42:20.524Z,97406.78
2023-01-29T23:46:20.773Z,97415.69
2023-01-29T23:50:21.230Z,97407.97
2023-01-29T23:54:24.182Z,97376.94
2023-01-29T23:58:24.374Z,97390.78
